Time;durP1;ratioP1;P1;durP2;ratioP2;P2;SDS_P1;SDS_P2;PMS_P1;PMS_P2;Temp;Humidity;BMP_temperature;BMP_pressure;BME280_temperature;BME280_humidity;BME280_pressure;Samples;Min_cycle;Max_cycle;Signal;HPM_P1;HPM_P2
2023/12/12 00:00:56;;;;;;;58.00;33.40;;;;;;;3.61;85.93;99764.86;108844;1255;58489;-65
2023/12/12 00:03:39;;;;;;;59.30;33.10;;;;;;;3.63;85.85;99760.41;108741;1255;137916;-65
2023/12/12 00:06:07;;;;;;;60.40;33.50;;;;;;;3.65;85.89;99762.07;108817;1260;73103;-65
2023/12/12 00:08:33;;;;;;;54.10;31.80;;;;;;;3.67;85.92;99763.87;108731;1255;138317;-59
2023/12/12 00:11:00;;;;;;;60.60;33.50;;;;;;;3.68;85.79;99766.85;108870;1256;73756;-59
2023/12/12 00:13:27;;;;;;;59.00;33.80;;;;;;;3.68;85.77;99769.13;108848;1256;58428;-59
2023/12/12 00:15:53;;;;;;;60.80;32.90;;;;;;;3.70;85.80;99770.41;108651;1256;137977;-60
2023/12/12 00:18:20;;;;;;;52.70;30.80;;;;;;;3.74;85.74;99775.02;108894;1256;72974;-59
2023/12/12 00:20:47;;;;;;;52.70;30.20;;;;;;;3.75;85.69;99776.63;107569;1259;138374;-59
2023/12/12 00:23:13;;;;;;;57.50;31.30;;;;;;;3.76;85.75;99775.98;104946;1257;72377;-59
2023/12/12 00:25:40;;;;;;;55.10;30.70;;;;;;;3.78;85.73;99778.48;104899;1260;60587;-59
2023/12/12 00:28:07;;;;;;;59.20;30.80;;;;;;;3.79;85.77;99777.14;104822;1256;138180;-59
2023/12/12 00:30:34;;;;;;;54.80;28.60;;;;;;;3.80;85.78;99783.08;104918;1260;72923;-60
2023/12/12 00:33:00;;;;;;;47.70;28.00;;;;;;;3.79;85.70;99785.12;104654;1259;138236;-60
2023/12/12 00:35:27;;;;;;;44.20;25.70;;;;;;;3.79;85.78;99788.23;104869;1256;72546;-57
2023/12/12 00:37:54;;;;;;;51.20;27.20;;;;;;;3.80;85.81;99788.27;104842;1254;60394;-58
2023/12/12 00:40:20;;;;;;;45.80;27.40;;;;;;;3.81;85.87;99786.91;104751;1256;137996;-64
2023/12/12 00:42:47;;;;;;;41.60;24.40;;;;;;;3.80;85.83;99790.70;104754;1257;74857;-64
2023/12/12 00:45:14;;;;;;;43.40;24.20;;;;;;;3.81;85.93;99797.84;104636;1256;138716;-65
2023/12/12 00:47:42;;;;;;;42.90;24.60;;;;;;;3.83;86.03;99805.05;108850;1255;71951;-65
2023/12/12 00:50:09;;;;;;;41.60;24.30;;;;;;;3.84;86.02;99808.90;108912;1256;58451;-65
2023/12/12 00:52:35;;;;;;;37.80;22.20;;;;;;;3.83;85.95;99809.93;108752;1255;138103;-65
2023/12/12 00:55:02;;;;;;;41.30;23.70;;;;;;;3.87;86.10;99811.27;108729;1256;74357;-65
2023/12/12 00:57:29;;;;;;;41.70;24.10;;;;;;;3.87;85.91;99812.50;108775;1255;138594;-65
2023/12/12 00:59:56;;;;;;;39.70;24.00;;;;;;;3.87;85.88;99812.86;108859;1255;71150;-65
2023/12/12 01:02:23;;;;;;;37.30;23.90;;;;;;;3.88;85.98;99816.36;106586;1256;60450;-65
2023/12/12 01:04:50;;;;;;;40.50;24.30;;;;;;;3.87;85.84;99814.23;104778;1256;137976;-65
2023/12/12 01:07:17;;;;;;;37.20;22.90;;;;;;;3.86;85.88;99819.92;108794;1255;73939;-63
2023/12/12 01:09:44;;;;;;;37.10;23.80;;;;;;;3.83;85.72;99819.81;108776;1256;138114;-58
2023/12/12 01:12:11;;;;;;;40.40;23.40;;;;;;;3.83;85.76;99820.14;108876;1256;73701;-64
2023/12/12 01:14:37;;;;;;;38.70;23.00;;;;;;;3.82;85.89;99820.83;108741;1256;139319;-63
2023/12/12 01:17:04;;;;;;;40.30;22.90;;;;;;;3.84;85.80;99824.70;108862;1256;61421;-58
2023/12/12 01:19:31;;;;;;;39.80;23.10;;;;;;;3.85;85.90;99824.40;108861;1256;73681;-59
2023/12/12 01:21:57;;;;;;;34.10;22.10;;;;;;;3.86;85.94;99823.20;108740;1256;138308;-63
2023/12/12 01:24:24;;;;;;;38.20;23.20;;;;;;;3.88;85.86;99826.05;108744;1256;73725;-63
2023/12/12 01:26:51;;;;;;;40.10;24.30;;;;;;;3.91;85.94;99830.52;108751;1256;139439;-63
2023/12/12 01:29:18;;;;;;;39.30;23.10;;;;;;;3.92;85.84;99832.60;108792;1255;58575;-64
2023/12/12 01:31:44;;;;;;;38.50;22.90;;;;;;;3.92;85.85;99833.67;105475;1260;74916;-64
2023/12/12 01:34:11;;;;;;;40.40;23.70;;;;;;;3.92;85.81;99839.55;104880;1257;138603;-63
2023/12/12 01:36:38;;;;;;;36.00;22.00;;;;;;;3.93;85.86;99841.68;104767;1260;73259;-63
2023/12/12 01:39:05;;;;;;;37.60;21.50;;;;;;;3.94;85.88;99849.55;104755;1260;138653;-63
2023/12/12 01:41:32;;;;;;;34.80;21.70;;;;;;;3.95;85.93;99849.55;108918;1255;60437;-64
2023/12/12 01:43:59;;;;;;;32.30;19.30;;;;;;;3.95;85.92;99851.15;108856;1256;73354;-64
2023/12/12 01:46:25;;;;;;;36.00;20.70;;;;;;;3.96;85.87;99850.31;108489;1256;138039;-64
2023/12/12 01:48:52;;;;;;;31.90;19.30;;;;;;;3.97;85.96;99853.11;108843;1256;73292;-64
2023/12/12 01:51:19;;;;;;;31.90;20.10;;;;;;;3.98;85.95;99853.30;108682;1255;138018;-64
2023/12/12 01:53:46;;;;;;;26.60;17.60;;;;;;;3.97;85.82;99852.41;108787;1255;60399;-64
2023/12/12 01:56:13;;;;;;;29.90;18.40;;;;;;;3.98;85.92;99853.33;108870;1256;74436;-64
2023/12/12 01:58:44;;;;;;;30.50;18.60;;;;;;;3.99;85.92;99853.19;108741;1257;138204;-64
2023/12/12 02:01:10;;;;;;;34.10;19.20;;;;;;;3.99;85.91;99852.17;108806;1255;72505;-65
2023/12/12 02:03:38;;;;;;;27.60;17.40;;;;;;;4.02;86.00;99853.80;108688;1256;138421;-58
2023/12/12 02:06:04;;;;;;;27.40;17.60;;;;;;;4.04;85.93;99853.91;108829;1254;60792;-59
2023/12/12 02:08:31;;;;;;;33.70;20.20;;;;;;;4.06;85.95;99857.11;108844;1255;138756;-64
2023/12/12 02:10:58;;;;;;;33.30;18.70;;;;;;;4.07;85.91;99858.02;108777;1256;66258;-65
2023/12/12 02:13:24;;;;;;;29.20;18.30;;;;;;;4.10;85.88;99858.78;108866;1256;73931;-65
2023/12/12 02:15:51;;;;;;;26.70;17.80;;;;;;;4.10;85.78;99857.41;108592;1256;138898;-64
2023/12/12 02:18:18;;;;;;;28.50;17.80;;;;;;;4.10;85.82;99856.20;108851;1256;59690;-65
2023/12/12 02:20:44;;;;;;;26.40;16.80;;;;;;;4.14;85.93;99861.35;108754;1256;138442;-59
2023/12/12 02:23:11;;;;;;;32.40;18.10;;;;;;;4.16;85.76;99861.10;108897;1255;66120;-59
2023/12/12 02:25:38;;;;;;;34.60;18.40;;;;;;;4.16;85.76;99861.79;108827;1255;72333;-59
2023/12/12 02:28:05;;;;;;;31.50;18.60;;;;;;;4.18;85.82;99865.34;108720;1255;138526;-59
2023/12/12 02:30:32;;;;;;;30.20;19.30;;;;;;;4.19;85.77;99863.30;108862;1255;60109;-58
2023/12/12 02:32:59;;;;;;;30.30;18.30;;;;;;;4.20;85.64;99865.45;108700;1254;138964;-59
2023/12/12 02:35:27;;;;;;;29.90;17.80;;;;;;;4.21;85.75;99863.73;108916;1256;65123;-59
2023/12/12 02:37:53;;;;;;;26.80;17.90;;;;;;;4.20;85.51;99868.55;108844;1255;72682;-60
2023/12/12 02:40:20;;;;;;;28.20;16.50;;;;;;;4.21;85.72;99876.20;108743;1256;138618;-59
2023/12/12 02:42:48;;;;;;;23.80;15.50;;;;;;;4.21;85.65;99879.70;108865;1255;58368;-59
2023/12/12 02:45:15;;;;;;;24.40;15.60;;;;;;;4.19;85.57;99882.41;108766;1255;138437;-59
2023/12/12 02:47:42;;;;;;;26.70;16.70;;;;;;;4.18;85.58;99886.34;108857;1255;67055;-59
2023/12/12 02:50:09;;;;;;;25.60;16.10;;;;;;;4.18;85.64;99889.82;108893;1255;74477;-59
2023/12/12 02:52:35;;;;;;;29.50;16.60;;;;;;;4.18;85.64;99893.98;108684;1256;138330;-64
2023/12/12 02:55:02;;;;;;;25.40;15.00;;;;;;;4.15;85.69;99889.89;108899;1256;59428;-59
2023/12/12 02:57:29;;;;;;;21.80;14.40;;;;;;;4.14;85.62;99891.93;105346;1260;139100;-64
2023/12/12 02:59:55;;;;;;;25.40;15.40;;;;;;;4.13;85.64;99892.77;104793;1256;66440;-59
2023/12/12 03:02:22;;;;;;;24.30;14.30;;;;;;;4.11;85.78;99889.92;104910;1256;72488;-60
2023/12/12 03:04:51;;;;;;;24.50;14.90;;;;;;;4.10;85.73;99892.83;104753;1260;138153;-64
2023/12/12 03:07:17;;;;;;;24.60;13.70;;;;;;;4.07;85.74;99894.98;104690;1260;62134;-58
2023/12/12 03:09:44;;;;;;;26.20;14.50;;;;;;;4.07;85.90;99895.86;104644;1259;138934;-59
2023/12/12 03:12:10;;;;;;;24.50;14.20;;;;;;;4.07;85.94;99894.80;104918;1260;67005;-59
2023/12/12 03:14:37;;;;;;;20.70;13.40;;;;;;;4.07;86.04;99894.83;104593;1260;138628;-64
2023/12/12 03:17:04;;;;;;;19.50;13.20;;;;;;;4.07;85.98;99901.25;104708;1256;61117;-65
2023/12/12 03:19:31;;;;;;;20.20;13.80;;;;;;;4.06;86.07;99902.08;104953;1255;60382;-65
2023/12/12 03:21:57;;;;;;;22.00;13.00;;;;;;;4.05;86.06;99904.62;104730;1256;138321;-59
2023/12/12 03:24:24;;;;;;;21.80;13.70;;;;;;;4.04;86.02;99906.50;104829;1259;67068;-59
2023/12/12 03:26:51;;;;;;;23.90;13.40;;;;;;;4.01;86.16;99905.00;104767;1256;138612;-60
2023/12/12 03:29:18;;;;;;;21.00;12.90;;;;;;;3.99;86.14;99910.82;104787;1256;60373;-59
2023/12/12 03:31:45;;;;;;;19.90;11.70;;;;;;;3.96;86.01;99913.14;104717;1256;61404;-60
2023/12/12 03:34:12;;;;;;;22.50;12.70;;;;;;;3.94;86.17;99919.48;104649;1256;138420;-64
2023/12/12 03:36:42;;;;;;;20.60;12.80;;;;;;;3.93;86.10;99922.73;104755;1255;65792;-60
2023/12/12 03:39:10;;;;;;;18.50;12.40;;;;;;;3.92;86.15;99925.31;104643;1260;139394;-59
2023/12/12 03:41:37;;;;;;;17.00;12.20;;;;;;;3.93;86.33;99923.42;108881;1256;59618;-60
2023/12/12 03:44:04;;;;;;;19.80;12.50;;;;;;;3.93;86.33;99928.13;108868;1256;59367;-60
2023/12/12 03:46:30;;;;;;;16.70;11.90;;;;;;;3.94;86.34;99929.05;108769;1255;137997;-58
2023/12/12 03:48:57;;;;;;;18.20;12.30;;;;;;;3.95;86.38;99928.89;108860;1256;64999;-57
2023/12/12 03:51:24;;;;;;;16.70;11.00;;;;;;;3.97;86.37;99930.69;108736;1256;138193;-64
2023/12/12 03:53:50;;;;;;;16.60;11.40;;;;;;;3.98;86.36;99933.32;108883;1255;58913;-63
2023/12/12 03:56:17;;;;;;;16.30;10.90;;;;;;;3.99;86.29;99937.23;108825;1256;59599;-58
2023/12/12 03:58:45;;;;;;;15.80;9.50;;;;;;;4.01;86.39;99934.52;108730;1255;138515;-64
2023/12/12 04:01:12;;;;;;;15.10;9.60;;;;;;;4.05;86.32;99940.04;108855;1255;66638;-65
2023/12/12 04:03:39;;;;;;;21.40;10.70;;;;;;;4.06;86.27;99942.17;108679;1255;138927;-65
2023/12/12 04:06:07;;;;;;;13.70;9.00;;;;;;;4.09;86.46;99939.34;108877;1256;59128;-65
2023/12/12 04:08:34;;;;;;;15.80;9.90;;;;;;;4.12;86.39;99940.83;108774;1255;138833;-64
2023/12/12 04:11:01;;;;;;;15.70;10.30;;;;;;;4.14;86.33;99940.52;108911;1255;74902;-58
2023/12/12 04:13:28;;;;;;;17.90;11.00;;;;;;;4.14;86.31;99943.66;106747;1257;67299;-59
2023/12/12 04:15:55;;;;;;;16.30;10.30;;;;;;;4.15;86.28;99946.80;104656;1256;138399;-59
2023/12/12 04:18:22;;;;;;;16.30;11.40;;;;;;;4.16;86.35;99949.47;104803;1260;61316;-60
2023/12/12 04:20:49;;;;;;;15.70;10.80;;;;;;;4.16;86.37;99948.61;104861;1256;139559;-60
2023/12/12 04:23:16;;;;;;;17.90;11.20;;;;;;;4.16;86.33;99947.39;104829;1256;74334;-60
2023/12/12 04:25:43;;;;;;;15.90;11.10;;;;;;;4.16;86.42;99952.11;104760;1256;65152;-58
2023/12/12 04:28:10;;;;;;;17.50;11.20;;;;;;;4.16;86.35;99954.88;104750;1256;138574;-59
2023/12/12 04:30:36;;;;;;;17.80;11.80;;;;;;;4.17;86.39;99956.65;104855;1254;61264;-59
2023/12/12 04:33:03;;;;;;;19.20;11.60;;;;;;;4.17;86.39;99957.16;104767;1260;138769;-58
2023/12/12 04:35:30;;;;;;;16.00;11.30;;;;;;;4.18;86.51;99956.17;104854;1256;75451;-58
2023/12/12 04:37:58;;;;;;;18.60;10.80;;;;;;;4.21;86.53;99957.31;104846;1261;66719;-58
2023/12/12 04:40:28;;;;;;;15.60;10.20;;;;;;;4.21;86.45;99956.97;108650;1256;139126;-58
2023/12/12 04:42:55;;;;;;;17.70;11.00;;;;;;;4.20;86.36;99959.70;108913;1256;60716;-59
2023/12/12 04:45:22;;;;;;;14.80;10.30;;;;;;;4.21;86.44;99961.49;108668;1256;138468;-58
2023/12/12 04:47:48;;;;;;;15.80;10.00;;;;;;;4.22;86.26;99960.12;108880;1256;75627;-58
2023/12/12 04:50:15;;;;;;;15.80;10.60;;;;;;;4.23;86.21;99963.27;108849;1256;66151;-58
2023/12/12 04:52:42;;;;;;;15.40;10.10;;;;;;;4.23;86.32;99965.04;105552;1261;139108;-58
2023/12/12 04:55:10;;;;;;;17.70;10.50;;;;;;;4.24;86.18;99967.16;104773;1256;61326;-59
2023/12/12 04:57:38;;;;;;;16.90;9.90;;;;;;;4.25;86.23;99964.95;104723;1260;138993;-62
2023/12/12 05:00:13;;;;;;;12.60;9.10;;;;;;;4.24;86.16;99969.61;104810;1256;75308;-60
2023/12/12 05:02:41;;;;;;;13.60;8.50;;;;;;;4.23;86.11;99970.24;108770;1255;138924;-57
2023/12/12 05:05:08;;;;;;;12.50;9.10;;;;;;;4.21;86.18;99974.19;108885;1256;71418;-57
2023/12/12 05:07:34;;;;;;;12.00;8.50;;;;;;;4.22;86.20;99977.33;105237;1256;61374;-58
2023/12/12 05:10:01;;;;;;;14.20;8.70;;;;;;;4.24;86.23;99982.60;104610;1256;138211;-66
2023/12/12 05:12:28;;;;;;;11.40;8.30;;;;;;;4.24;86.18;99980.35;104818;1256;75582;-66
2023/12/12 05:14:55;;;;;;;14.00;8.90;;;;;;;4.23;86.18;99983.62;104866;1260;138658;-64
2023/12/12 05:17:22;;;;;;;14.20;8.90;;;;;;;4.23;86.24;99982.92;105380;1256;72121;-67
2023/12/12 05:19:48;;;;;;;13.30;9.60;;;;;;;4.21;86.15;99982.67;104812;1260;61364;-67
2023/12/12 05:22:15;;;;;;;14.80;9.90;;;;;;;4.19;86.07;99985.55;104647;1261;138949;-58
2023/12/12 05:24:42;;;;;;;13.10;10.20;;;;;;;4.19;86.25;99987.27;104868;1256;75353;-58
2023/12/12 05:27:09;;;;;;;15.50;10.40;;;;;;;4.18;86.28;99991.59;104578;1256;138828;-58
2023/12/12 05:29:36;;;;;;;12.70;9.90;;;;;;;4.18;86.23;99991.56;104939;1256;73265;-59
2023/12/12 05:32:03;;;;;;;13.50;10.40;;;;;;;4.16;86.15;99991.69;104837;1256;61305;-59
2023/12/12 05:34:29;;;;;;;16.60;11.70;;;;;;;4.13;86.10;99989.27;104645;1261;138475;-58
2023/12/12 05:36:56;;;;;;;15.80;11.30;;;;;;;4.09;86.24;99993.51;104943;1260;75134;-58
2023/12/12 05:39:23;;;;;;;15.50;10.90;;;;;;;4.10;86.46;99989.70;104934;1255;138149;-63
2023/12/12 05:41:50;;;;;;;18.70;11.70;;;;;;;4.08;86.38;99991.23;104880;1256;72737;-64
2023/12/12 05:44:16;;;;;;;17.00;11.60;;;;;;;4.08;86.46;99993.65;104908;1256;61339;-58
2023/12/12 05:46:43;;;;;;;16.90;10.90;;;;;;;4.09;86.59;99998.73;104774;1257;138407;-59
2023/12/12 05:49:10;;;;;;;18.30;11.50;;;;;;;4.11;86.63;99999.65;104727;1258;74385;-58
2023/12/12 05:51:39;;;;;;;17.80;10.60;;;;;;;4.13;86.63;99999.88;104678;1260;138123;-59
2023/12/12 05:54:11;;;;;;;14.20;10.70;;;;;;;4.13;86.65;100002.83;108871;1256;72842;-59
2023/12/12 05:56:38;;;;;;;14.10;10.10;;;;;;;4.15;86.62;100001.70;108721;1256;138931;-59
2023/12/12 05:59:05;;;;;;;14.80;10.70;;;;;;;4.18;86.61;100002.86;105047;1256;61323;-59
2023/12/12 06:01:32;;;;;;;16.60;10.00;;;;;;;4.18;86.49;100006.54;104882;1256;75885;-58
2023/12/12 06:03:58;;;;;;;14.70;9.90;;;;;;;4.19;86.44;100013.50;104618;1256;138474;-63
2023/12/12 06:06:25;;;;;;;14.30;10.60;;;;;;;4.18;86.33;100017.81;104719;1259;70776;-64
2023/12/12 06:08:52;;;;;;;14.50;10.20;;;;;;;4.16;86.38;100020.52;104815;1259;138899;-64
2023/12/12 06:11:21;;;;;;;14.50;10.40;;;;;;;4.16;86.48;100031.95;104643;1256;61233;-60
2023/12/12 06:13:47;;;;;;;14.60;10.20;;;;;;;4.16;86.38;100030.91;104580;1261;75136;-59
2023/12/12 06:16:14;;;;;;;15.20;9.80;;;;;;;4.18;86.44;100032.20;104516;1261;138578;-59
2023/12/12 06:18:41;;;;;;;14.90;11.20;;;;;;;4.18;86.52;100037.77;104608;1256;70609;-59
2023/12/12 06:21:07;;;;;;;15.70;10.50;;;;;;;4.21;86.68;100034.94;104750;1256;139441;-59
2023/12/12 06:23:34;;;;;;;13.90;10.10;;;;;;;4.22;86.45;100034.29;104761;1256;61246;-60
2023/12/12 06:26:03;;;;;;;14.20;10.50;;;;;;;4.23;86.47;100038.85;104821;1257;75318;-65
2023/12/12 06:28:30;;;;;;;14.60;10.10;;;;;;;4.22;86.50;100039.70;108874;1256;138671;-63
2023/12/12 06:30:57;;;;;;;14.00;9.60;;;;;;;4.22;86.31;100045.74;108944;1255;71823;-63
2023/12/12 06:33:27;;;;;;;15.50;9.50;;;;;;;4.23;86.42;100049.10;108922;1256;138880;-64
2023/12/12 06:35:55;;;;;;;11.60;8.90;;;;;;;4.25;86.29;100051.25;109037;1256;60455;-63
2023/12/12 06:38:21;;;;;;;13.70;9.10;;;;;;;4.25;86.30;100051.59;109021;1256;74728;-63
2023/12/12 06:40:48;;;;;;;12.30;8.60;;;;;;;4.24;86.13;100056.96;108954;1256;139270;-63
2023/12/12 06:43:16;;;;;;;12.30;9.20;;;;;;;4.26;86.20;100062.23;108972;1256;72251;-64
2023/12/12 06:45:42;;;;;;;12.00;8.60;;;;;;;4.27;86.25;100060.21;108929;1257;138729;-63
2023/12/12 06:48:09;;;;;;;23.10;14.90;;;;;;;4.28;86.17;100059.90;109074;1256;59905;-63
2023/12/12 06:50:36;;;;;;;26.00;17.40;;;;;;;4.29;86.03;100063.21;108961;1256;139209;-64
2023/12/12 06:53:02;;;;;;;20.80;14.40;;;;;;;4.28;86.07;100067.35;109035;1254;65938;-63
2023/12/12 06:55:29;;;;;;;21.30;13.60;;;;;;;4.29;86.12;100070.34;109027;1256;71875;-64
2023/12/12 06:57:57;;;;;;;20.30;11.70;;;;;;;4.32;86.11;100071.13;108958;1254;139058;-64
2023/12/12 07:00:24;;;;;;;13.60;8.60;;;;;;;4.35;86.28;100075.26;109128;1254;58972;-64
2023/12/12 07:02:51;;;;;;;11.40;7.40;;;;;;;4.38;86.33;100073.81;108946;1256;138582;-64
2023/12/12 07:05:18;;;;;;;9.80;7.20;;;;;;;4.41;86.37;100076.02;109122;1255;65164;-59
2023/12/12 07:07:45;;;;;;;9.50;6.70;;;;;;;4.45;86.46;100077.22;109060;1255;73092;-60
2023/12/12 07:10:12;;;;;;;11.90;7.70;;;;;;;4.47;86.44;100080.44;108866;1256;138400;-64
2023/12/12 07:12:38;;;;;;;12.00;7.80;;;;;;;4.51;86.57;100086.11;109082;1255;58844;-59
2023/12/12 07:15:07;;;;;;;11.40;8.20;;;;;;;4.53;86.49;100091.77;108972;1256;138696;-64
2023/12/12 07:17:33;;;;;;;12.30;7.80;;;;;;;4.54;86.48;100094.41;109121;1254;65661;-63
2023/12/12 07:20:00;;;;;;;10.50;7.90;;;;;;;4.56;86.47;100096.20;109087;1255;73769;-60
2023/12/12 07:22:27;;;;;;;12.30;7.70;;;;;;;4.58;86.38;100101.86;108924;1256;138493;-64
2023/12/12 07:24:53;;;;;;;9.60;6.90;;;;;;;4.60;86.43;100103.16;109029;1257;59360;-64
2023/12/12 07:27:20;;;;;;;10.10;7.60;;;;;;;4.62;86.42;100106.55;109026;1258;138584;-64
2023/12/12 07:29:47;;;;;;;10.10;7.40;;;;;;;4.64;86.40;100114.09;109017;1259;66364;-64
2023/12/12 07:32:13;;;;;;;11.60;8.20;;;;;;;4.67;86.43;100120.13;109097;1256;73674;-63
2023/12/12 07:34:40;;;;;;;13.10;8.80;;;;;;;4.68;86.34;100124.84;108986;1254;138675;-64
2023/12/12 07:37:07;;;;;;;12.40;8.80;;;;;;;4.70;86.26;100128.55;109073;1256;60391;-64
2023/12/12 07:39:33;;;;;;;11.40;8.40;;;;;;;4.73;86.31;100129.86;108958;1256;138578;-64
2023/12/12 07:42:00;;;;;;;13.40;10.10;;;;;;;4.74;86.28;100125.92;109132;1254;67584;-64
2023/12/12 07:44:27;;;;;;;18.60;13.00;;;;;;;4.75;86.22;100131.20;107330;1259;73980;-59
2023/12/12 07:46:54;;;;;;;24.30;20.60;;;;;;;4.75;86.13;100133.97;105495;1258;138501;-63
2023/12/12 07:49:20;;;;;;;24.30;21.70;;;;;;;4.76;86.15;100137.32;105192;1258;61241;-63
2023/12/12 07:51:47;;;;;;;26.30;22.20;;;;;;;4.78;86.36;100140.51;104984;1257;139045;-64
2023/12/12 07:54:13;;;;;;;23.40;20.00;;;;;;;4.80;86.07;100138.48;105123;1256;66045;-64
2023/12/12 07:56:41;;;;;;;17.90;15.10;;;;;;;4.80;86.19;100138.67;108912;1256;138592;-64
2023/12/12 07:59:08;;;;;;;15.30;11.50;;;;;;;4.81;86.16;100141.67;109072;1255;58856;-65
2023/12/12 08:01:36;;;;;;;14.60;10.10;;;;;;;4.83;86.21;100147.30;109059;1255;61665;-64
2023/12/12 08:04:04;;;;;;;15.90;10.60;;;;;;;4.84;86.12;100150.83;108896;1256;139103;-64
2023/12/12 08:06:34;;;;;;;17.70;11.50;;;;;;;4.83;86.03;100152.19;109103;1256;64306;-64
2023/12/12 08:09:01;;;;;;;15.80;10.90;;;;;;;4.83;86.05;100160.02;108947;1256;139000;-65
2023/12/12 08:11:27;;;;;;;16.70;11.40;;;;;;;4.84;86.14;100158.66;109049;1257;60180;-65
2023/12/12 08:13:54;;;;;;;16.40;10.10;;;;;;;4.88;86.18;100161.05;109053;1256;58970;-65
2023/12/12 08:16:22;;;;;;;16.10;11.20;;;;;;;4.89;86.05;100166.48;108915;1258;138523;-65
2023/12/12 08:18:48;;;;;;;16.30;11.20;;;;;;;4.86;85.93;100163.96;109109;1256;64599;-64
2023/12/12 08:21:15;;;;;;;19.50;11.50;;;;;;;4.87;85.98;100163.11;108911;1256;138870;-65
2023/12/12 08:23:42;;;;;;;16.70;11.70;;;;;;;4.88;86.00;100167.15;109016;1256;59809;-65
2023/12/12 08:26:09;;;;;;;19.80;13.00;;;;;;;4.87;85.98;100166.77;109038;1255;61419;-60
2023/12/12 08:28:36;;;;;;;25.20;14.30;;;;;;;4.87;85.91;100166.27;108954;1255;139361;-59
2023/12/12 08:31:05;;;;;;;28.30;15.30;;;;;;;4.89;86.01;100170.15;109092;1255;65409;-59
2023/12/12 08:33:35;;;;;;;24.20;15.60;;;;;;;4.91;86.08;100169.00;109013;1255;138761;-64
2023/12/12 08:36:03;;;;;;;30.80;17.90;;;;;;;4.92;86.02;100177.73;109048;1255;59108;-64
2023/12/12 08:38:30;;;;;;;34.50;19.80;;;;;;;4.92;85.96;100177.71;108970;1256;139374;-62
2023/12/12 08:40:57;;;;;;;33.00;19.10;;;;;;;4.91;86.00;100178.39;109033;1256;75256;-64
2023/12/12 08:43:24;;;;;;;37.70;21.40;;;;;;;4.92;86.12;100180.67;109051;1256;66754;-64
2023/12/12 08:45:52;;;;;;;39.40;20.60;;;;;;;4.94;86.12;100183.21;108970;1254;138765;-64
2023/12/12 08:48:19;;;;;;;28.90;17.60;;;;;;;4.97;86.15;100183.33;109059;1256;59371;-64
2023/12/12 08:50:48;;;;;;;32.00;18.10;;;;;;;4.97;86.05;100187.84;108966;1256;139766;-64
2023/12/12 08:53:15;;;;;;;30.70;17.50;;;;;;;4.96;85.98;100189.89;109045;1256;74697;-64
2023/12/12 08:55:42;;;;;;;29.80;17.70;;;;;;;4.96;86.24;100194.23;109129;1256;66394;-64
2023/12/12 08:58:08;;;;;;;29.30;18.60;;;;;;;4.95;86.52;100195.06;108933;1256;139230;-64
2023/12/12 09:00:35;;;;;;;31.40;19.40;;;;;;;4.97;86.37;100199.48;109055;1256;60218;-64
2023/12/12 09:03:02;;;;;;;32.80;20.10;;;;;;;4.99;86.21;100205.11;108959;1256;138952;-64
2023/12/12 09:05:28;;;;;;;35.00;20.40;;;;;;;4.99;86.24;100204.06;109114;1255;73775;-64
2023/12/12 09:07:55;;;;;;;33.40;19.70;;;;;;;4.99;86.20;100203.20;109068;1256;66264;-64
2023/12/12 09:10:22;;;;;;;36.50;21.00;;;;;;;5.01;86.20;100208.50;108941;1258;138574;-64
2023/12/12 09:12:48;;;;;;;32.20;19.60;;;;;;;5.04;86.28;100211.41;109057;1256;59300;-64
2023/12/12 09:15:17;;;;;;;31.70;19.00;;;;;;;5.06;86.24;100213.58;108899;1256;138900;-64
2023/12/12 09:17:43;;;;;;;34.00;19.30;;;;;;;5.07;86.19;100221.27;109068;1255;75970;-64
2023/12/12 09:20:12;;;;;;;37.10;21.90;;;;;;;5.08;86.15;100226.16;109030;1256;66063;-64
2023/12/12 09:22:38;;;;;;;47.10;24.60;;;;;;;5.06;86.00;100225.89;108941;1256;138591;-64
2023/12/12 09:25:05;;;;;;;32.10;21.30;;;;;;;5.06;85.97;100225.02;108981;1257;58989;-64
2023/12/12 09:27:31;;;;;;;33.00;19.20;;;;;;;5.06;86.04;100222.25;108943;1256;138644;-64
2023/12/12 09:29:58;;;;;;;30.40;19.10;;;;;;;5.06;86.02;100225.38;109070;1258;75119;-64
2023/12/12 09:32:25;;;;;;;28.20;17.80;;;;;;;5.06;86.01;100227.14;109104;1257;66193;-64
2023/12/12 09:34:51;;;;;;;31.10;18.50;;;;;;;5.09;86.08;100226.20;108904;1256;140126;-64
2023/12/12 09:37:22;;;;;;;26.00;17.70;;;;;;;5.10;85.99;100226.08;109072;1255;59905;-65
2023/12/12 09:39:49;;;;;;;28.90;17.90;;;;;;;5.11;85.95;100229.73;108021;1257;138460;-65
2023/12/12 09:42:17;;;;;;;27.40;17.70;;;;;;;5.13;86.03;100233.46;108991;1256;74724;-65
2023/12/12 09:44:46;;;;;;;28.30;18.30;;;;;;;5.15;85.97;100237.56;108946;1255;138867;-64
2023/12/12 09:47:13;;;;;;;26.30;17.60;;;;;;;5.16;85.94;100229.58;108998;1256;72885;-65
2023/12/12 09:49:40;;;;;;;33.30;18.50;;;;;;;5.19;86.01;100234.05;108862;1256;59055;-65
2023/12/12 09:52:07;;;;;;;36.10;20.10;;;;;;;5.21;85.88;100237.95;108966;1258;138672;-65
2023/12/12 09:54:34;;;;;;;38.80;19.60;;;;;;;5.22;85.85;100240.61;109037;1256;74685;-65
2023/12/12 09:57:00;;;;;;;30.10;17.60;;;;;;;5.23;85.85;100243.96;107763;1260;139259;-64
2023/12/12 09:59:27;;;;;;;24.90;17.10;;;;;;;5.25;85.81;100243.66;105038;1257;73758;-65
2023/12/12 10:01:55;;;;;;;25.90;16.80;;;;;;;5.24;85.73;100241.75;104980;1256;61310;-64
2023/12/12 10:04:22;;;;;;;26.70;16.90;;;;;;;5.24;85.73;100242.96;108983;1254;138466;-64
2023/12/12 10:06:50;;;;;;;25.00;15.90;;;;;;;5.27;85.81;100244.45;109052;1256;73223;-64
2023/12/12 10:09:16;;;;;;;24.70;16.00;;;;;;;5.29;85.67;100249.22;108916;1256;138071;-59
2023/12/12 10:11:43;;;;;;;24.40;15.60;;;;;;;5.33;85.82;100248.67;109038;1256;72537;-60
2023/12/12 10:14:10;;;;;;;22.70;14.90;;;;;;;5.38;85.79;100249.05;109049;1256;58964;-65
2023/12/12 10:16:37;;;;;;;24.80;16.00;;;;;;;5.41;85.69;100248.30;108901;1256;138551;-65
2023/12/12 10:19:03;;;;;;;22.70;15.10;;;;;;;5.44;85.69;100247.17;107423;1256;74700;-64
2023/12/12 10:21:30;;;;;;;23.10;15.40;;;;;;;5.50;85.75;100247.25;104794;1260;139262;-63
2023/12/12 10:23:58;;;;;;;23.50;15.70;;;;;;;5.54;85.55;100246.48;104919;1259;73010;-64
2023/12/12 10:26:29;;;;;;;22.70;15.30;;;;;;;5.55;85.40;100251.42;104959;1261;61170;-64
2023/12/12 10:28:57;;;;;;;24.60;15.70;;;;;;;5.53;85.30;100253.60;109071;1256;59468;-60
2023/12/12 10:31:24;;;;;;;24.10;15.50;;;;;;;5.56;85.41;100252.85;109109;1256;74449;-60
2023/12/12 10:33:51;;;;;;;26.20;16.10;;;;;;;5.56;85.22;100257.89;108796;1256;138750;-60
2023/12/12 10:36:18;;;;;;;28.10;17.60;;;;;;;5.57;85.22;100258.44;109053;1256;72578;-59
2023/12/12 10:38:44;;;;;;;26.10;15.90;;;;;;;5.59;85.20;100262.01;108906;1256;139351;-60
2023/12/12 10:41:16;;;;;;;24.20;15.70;;;;;;;5.58;84.96;100263.36;107566;1258;308220;-58
2023/12/12 10:43:44;;;;;;;26.80;16.70;;;;;;;5.59;85.11;100267.39;104928;1259;75013;-65
2023/12/12 10:46:14;;;;;;;27.30;17.10;;;;;;;5.59;85.06;100268.47;104822;1259;137778;-65
2023/12/12 10:48:43;;;;;;;28.70;16.40;;;;;;;5.59;84.96;100264.98;105042;1271;72713;-59
2023/12/12 10:51:15;;;;;;;21.00;13.90;;;;;;;5.59;84.94;100263.08;108922;1256;138441;-60
2023/12/12 10:53:42;;;;;;;24.20;15.20;;;;;;;5.59;84.86;100260.23;109074;1256;59310;-60
2023/12/12 10:56:10;;;;;;;20.90;14.50;;;;;;;5.56;84.76;100257.91;109076;1255;75219;-65
2023/12/12 10:58:39;;;;;;;22.40;15.10;;;;;;;5.57;84.84;100261.23;108884;1262;138832;-65
2023/12/12 11:01:10;;;;;;;20.50;13.20;;;;;;;5.58;84.79;100262.17;109030;1256;70893;-64
2023/12/12 11:03:37;;;;;;;17.60;13.00;;;;;;;5.60;84.86;100264.13;108953;1258;138552;-64
2023/12/12 11:06:04;;;;;;;20.10;13.10;;;;;;;5.60;84.72;100270.94;109083;1258;61273;-64
2023/12/12 11:08:31;;;;;;;17.00;13.10;;;;;;;5.58;84.57;100279.56;109035;1256;74480;-64
2023/12/12 11:11:02;;;;;;;17.10;13.30;;;;;;;5.59;84.71;100282.73;109052;1259;67652;-64